createdAt,value
2023-03-30T00:01:03.171Z,0
2023-03-30T00:02:19.214Z,0
2023-03-30T00:03:35.547Z,0
2023-03-30T00:04:51.742Z,0
2023-03-30T00:06:07.923Z,0
2023-03-30T00:07:24.111Z,0
2023-03-30T00:08:40.151Z,0
2023-03-30T00:09:56.355Z,0
2023-03-30T00:11:12.682Z,0
2023-03-30T00:12:28.878Z,0
2023-03-30T00:13:45.064Z,0
2023-03-30T00:15:01.100Z,0
2023-03-30T00:16:16.443Z,0
2023-03-30T00:17:32.647Z,0
2023-03-30T00:18:48.823Z,0
2023-03-30T00:20:05.022Z,0
2023-03-30T00:21:21.062Z,0
2023-03-30T00:22:37.400Z,0
2023-03-30T00:23:53.436Z,0
2023-03-30T00:25:09.799Z,0
2023-03-30T00:26:25.960Z,0
2023-03-30T00:27:42.010Z,0
2023-03-30T00:28:58.197Z,0
2023-03-30T00:30:14.526Z,0
2023-03-30T00:31:30.717Z,0
2023-03-30T00:32:47.033Z,0
2023-03-30T00:34:03.230Z,0
2023-03-30T00:35:19.413Z,0
2023-03-30T00:36:35.444Z,0
2023-03-30T00:37:51.791Z,0
2023-03-30T00:39:07.979Z,0
2023-03-30T00:40:24.169Z,0
2023-03-30T00:41:40.215Z,0
2023-03-30T00:42:56.539Z,4
2023-03-30T00:44:12.575Z,0
2023-03-30T00:45:28.932Z,0
2023-03-30T00:46:44.954Z,0
2023-03-30T00:48:01.148Z,0
2023-03-30T00:49:16.511Z,0
2023-03-30T00:50:32.707Z,0
2023-03-30T00:51:48.881Z,0
2023-03-30T00:53:04.925Z,0
2023-03-30T00:54:21.104Z,0
2023-03-30T00:55:37.449Z,0
2023-03-30T00:56:53.493Z,0
2023-03-30T00:58:09.849Z,0
2023-03-30T00:59:25.867Z,0
2023-03-30T01:00:42.054Z,0
2023-03-30T01:01:58.256Z,0
2023-03-30T01:03:14.438Z,0
2023-03-30T01:04:30.747Z,0
2023-03-30T01:05:45.821Z,0
2023-03-30T01:07:02.008Z,0
2023-03-30T01:08:18.328Z,0
2023-03-30T01:09:34.521Z,0
2023-03-30T01:10:50.707Z,0
2023-03-30T01:12:06.781Z,0
2023-03-30T01:13:23.080Z,0
2023-03-30T01:14:39.155Z,0
2023-03-30T01:15:55.462Z,0
2023-03-30T01:17:11.525Z,0
2023-03-30T01:18:27.715Z,0
2023-03-30T01:19:44.033Z,0
2023-03-30T01:21:00.220Z,0
2023-03-30T01:22:15.308Z,0
2023-03-30T01:23:31.602Z,0
2023-03-30T01:24:47.677Z,0
2023-03-30T01:26:03.992Z,0
2023-03-30T01:27:20.172Z,0
2023-03-30T01:28:36.360Z,0
2023-03-30T01:29:52.561Z,0
2023-03-30T01:31:08.615Z,0
2023-03-30T01:32:24.923Z,0
2023-03-30T01:33:41.123Z,0
2023-03-30T01:34:57.303Z,0
2023-03-30T01:36:13.507Z,0
2023-03-30T01:37:29.683Z,0
2023-03-30T01:38:44.886Z,0
2023-03-30T01:40:01.091Z,0
2023-03-30T01:41:17.271Z,0
2023-03-30T01:42:33.464Z,0
2023-03-30T01:43:49.522Z,0
2023-03-30T01:45:05.716Z,0
2023-03-30T01:46:22.025Z,0
2023-03-30T01:47:38.085Z,0
2023-03-30T01:48:54.412Z,0
2023-03-30T01:50:10.600Z,0
2023-03-30T01:51:26.779Z,0
2023-03-30T01:52:42.859Z,0
2023-03-30T01:53:59.160Z,0
2023-03-30T01:55:14.240Z,0
2023-03-30T01:56:30.431Z,0
2023-03-30T01:57:46.754Z,0
2023-03-30T01:59:02.945Z,0
2023-03-30T02:00:18.991Z,0
2023-03-30T02:01:35.174Z,0
2023-03-30T02:02:51.507Z,0
2023-03-30T02:04:07.682Z,0
2023-03-30T02:05:23.887Z,0
2023-03-30T02:06:40.077Z,0
2023-03-30T02:07:56.251Z,0
2023-03-30T02:09:12.311Z,0
2023-03-30T02:10:28.630Z,0
2023-03-30T02:11:43.840Z,0
2023-03-30T02:13:00.025Z,0
2023-03-30T02:14:16.215Z,0
2023-03-30T02:15:32.281Z,0
2023-03-30T02:16:48.598Z,0
2023-03-30T02:18:04.781Z,0
2023-03-30T02:19:20.004Z,0
2023-03-30T02:20:36.193Z,0
2023-03-30T02:21:52.237Z,0
2023-03-30T02:23:08.432Z,0
2023-03-30T02:24:24.752Z,0
2023-03-30T02:25:40.940Z,0
2023-03-30T02:26:57.139Z,0
2023-03-30T02:28:13.320Z,0
2023-03-30T02:29:29.519Z,0
2023-03-30T02:30:45.577Z,0
2023-03-30T02:32:01.889Z,0
2023-03-30T02:33:17.950Z,0
2023-03-30T02:34:34.136Z,0
2023-03-30T02:35:49.470Z,0
2023-03-30T02:37:05.666Z,0
2023-03-30T02:38:21.718Z,0
2023-03-30T02:39:38.046Z,0
2023-03-30T02:40:54.095Z,0
2023-03-30T02:42:10.414Z,0
2023-03-30T02:43:26.616Z,0
2023-03-30T02:44:42.803Z,0
2023-03-30T02:45:58.991Z,0
2023-03-30T02:47:15.026Z,0
2023-03-30T02:48:31.219Z,0
2023-03-30T02:49:47.562Z,0
2023-03-30T02:51:03.752Z,0
2023-03-30T02:52:18.954Z,0
2023-03-30T02:53:35.132Z,0
2023-03-30T02:54:51.328Z,0
2023-03-30T02:56:07.520Z,0
2023-03-30T02:57:23.572Z,0
2023-03-30T02:58:39.758Z,0
2023-03-30T02:59:55.939Z,0
2023-03-30T03:01:12.132Z,0
2023-03-30T03:02:28.452Z,0
2023-03-30T03:03:44.653Z,0
2023-03-30T03:05:00.849Z,0
2023-03-30T03:06:17.035Z,0
2023-03-30T03:07:33.073Z,0
2023-03-30T03:08:48.292Z,0
2023-03-30T03:10:04.607Z,0
2023-03-30T03:11:20.797Z,0
2023-03-30T03:12:36.837Z,0
2023-03-30T03:13:53.179Z,0
2023-03-30T03:15:09.379Z,0
2023-03-30T03:16:25.418Z,0
2023-03-30T03:17:41.741Z,0
2023-03-30T03:18:57.787Z,0
2023-03-30T03:20:14.134Z,0
2023-03-30T03:21:30.000Z,0
2023-03-30T03:22:46.368Z,0
2023-03-30T03:24:02.541Z,0
2023-03-30T03:25:17.754Z,0
2023-03-30T03:26:34.092Z,0
2023-03-30T03:27:50.272Z,0
2023-03-30T03:29:06.469Z,0
2023-03-30T03:30:22.657Z,0
2023-03-30T03:31:38.845Z,0
2023-03-30T03:32:55.038Z,0
2023-03-30T03:34:11.215Z,0
2023-03-30T03:35:27.263Z,0
2023-03-30T03:36:43.598Z,0
2023-03-30T03:37:59.789Z,0
2023-03-30T03:39:15.838Z,0
2023-03-30T03:40:32.160Z,0
2023-03-30T03:41:47.226Z,0
2023-03-30T03:43:03.405Z,0
2023-03-30T03:44:19.755Z,0
2023-03-30T03:45:35.938Z,0
2023-03-30T03:46:51.977Z,0
2023-03-30T03:48:08.313Z,0
2023-03-30T03:49:24.520Z,0
2023-03-30T03:50:40.537Z,0
2023-03-30T03:51:56.739Z,0
2023-03-30T03:53:13.069Z,0
2023-03-30T03:54:29.111Z,0
2023-03-30T03:55:45.461Z,0
2023-03-30T03:57:01.645Z,0
2023-03-30T03:58:16.852Z,0
2023-03-30T03:59:32.887Z,0
2023-03-30T04:00:49.225Z,0
2023-03-30T04:02:05.256Z,0
2023-03-30T04:03:21.455Z,0
2023-03-30T04:04:37.637Z,0
2023-03-30T04:05:53.824Z,0
2023-03-30T04:07:10.165Z,0
2023-03-30T04:08:26.369Z,0
2023-03-30T04:09:42.394Z,0
2023-03-30T04:10:58.741Z,0
2023-03-30T04:12:14.928Z,0
2023-03-30T04:13:31.123Z,0
2023-03-30T04:14:46.324Z,0
2023-03-30T04:16:02.352Z,0
2023-03-30T04:17:18.555Z,0
2023-03-30T04:18:34.899Z,0
2023-03-30T04:19:51.082Z,0
2023-03-30T04:21:07.275Z,0
2023-03-30T04:22:23.292Z,0
2023-03-30T04:23:39.652Z,0
2023-03-30T04:24:55.669Z,0
2023-03-30T04:26:12.035Z,0
2023-03-30T04:27:28.214Z,4
2023-03-30T04:28:44.235Z,4
2023-03-30T04:30:00.429Z,0
2023-03-30T04:31:15.799Z,4
2023-03-30T04:32:31.825Z,8
2023-03-30T04:33:48.188Z,8
2023-03-30T04:35:04.365Z,12
2023-03-30T04:36:20.550Z,12
2023-03-30T04:37:36.738Z,12
2023-03-30T04:38:52.943Z,12
2023-03-30T04:40:09.118Z,16
2023-03-30T04:41:25.138Z,20
2023-03-30T04:42:41.496Z,20
2023-03-30T04:43:57.696Z,20
2023-03-30T04:45:13.882Z,24
2023-03-30T04:46:30.065Z,28
2023-03-30T04:47:45.100Z,28
2023-03-30T04:49:01.462Z,32
2023-03-30T04:50:17.659Z,28
2023-03-30T04:51:33.843Z,32
2023-03-30T04:52:49.871Z,36
2023-03-30T04:54:06.062Z,48
2023-03-30T04:55:22.255Z,60
2023-03-30T04:56:38.601Z,72
2023-03-30T04:57:54.780Z,80
2023-03-30T04:59:10.984Z,84
2023-03-30T05:00:27.008Z,96
2023-03-30T05:01:43.192Z,104
2023-03-30T05:02:59.377Z,112
2023-03-30T05:04:14.741Z,116
2023-03-30T05:05:30.928Z,116
2023-03-30T05:06:46.959Z,132
2023-03-30T05:08:03.307Z,140
2023-03-30T05:09:19.507Z,156
2023-03-30T05:10:35.514Z,180
2023-03-30T05:11:51.869Z,208
2023-03-30T05:13:08.000Z,236
2023-03-30T05:14:24.245Z,244
2023-03-30T05:15:40.269Z,268
2023-03-30T05:16:56.613Z,268
2023-03-30T05:18:12.649Z,260
2023-03-30T05:19:28.817Z,260
2023-03-30T05:20:44.193Z,280
2023-03-30T05:22:00.386Z,284
2023-03-30T05:23:16.400Z,304
2023-03-30T05:24:32.768Z,324
2023-03-30T05:25:48.773Z,364
2023-03-30T05:27:05.134Z,424
2023-03-30T05:28:21.324Z,476
2023-03-30T05:29:37.329Z,492
2023-03-30T05:30:53.693Z,488
2023-03-30T05:32:09.714Z,456
2023-03-30T05:33:26.071Z,400
2023-03-30T05:34:42.262Z,348
2023-03-30T05:35:58.453Z,332
2023-03-30T05:37:13.646Z,348
2023-03-30T05:38:29.839Z,344
2023-03-30T05:39:46.029Z,312
2023-03-30T05:41:02.051Z,288
2023-03-30T05:42:18.403Z,280
2023-03-30T05:43:34.585Z,288
2023-03-30T05:44:50.603Z,308
2023-03-30T05:46:06.975Z,316
2023-03-30T05:47:23.149Z,344
2023-03-30T05:48:39.153Z,376
2023-03-30T05:49:55.524Z,396
2023-03-30T05:51:11.697Z,432
2023-03-30T05:52:27.881Z,452
2023-03-30T05:53:42.925Z,452
2023-03-30T05:54:59.291Z,416
2023-03-30T05:56:15.305Z,388
2023-03-30T05:57:31.661Z,384
2023-03-30T05:58:47.838Z,384
2023-03-30T06:00:04.037Z,400
2023-03-30T06:01:20.044Z,436
2023-03-30T06:02:36.410Z,448
2023-03-30T06:03:52.428Z,512
2023-03-30T06:05:08.786Z,640
2023-03-30T06:06:24.973Z,740
2023-03-30T06:07:41.152Z,812
2023-03-30T06:08:57.337Z,848
2023-03-30T06:10:12.381Z,820
2023-03-30T06:11:28.565Z,796
2023-03-30T06:12:44.918Z,824
2023-03-30T06:14:01.116Z,856
2023-03-30T06:15:17.291Z,856
2023-03-30T06:16:33.490Z,860
2023-03-30T06:17:49.663Z,872
2023-03-30T06:19:05.677Z,884
2023-03-30T06:20:21.871Z,892
2023-03-30T06:21:38.061Z,888
2023-03-30T06:22:54.254Z,888
2023-03-30T06:24:10.426Z,884
2023-03-30T06:25:26.805Z,888
2023-03-30T06:26:41.818Z,912
2023-03-30T06:27:58.183Z,984
2023-03-30T06:29:14.376Z,1072
2023-03-30T06:30:30.561Z,1188
2023-03-30T06:31:46.742Z,1356
2023-03-30T06:33:02.946Z,1536
2023-03-30T06:34:17.967Z,1688
2023-03-30T06:35:34.149Z,1776
2023-03-30T06:36:50.530Z,1860
2023-03-30T06:38:06.704Z,1804
2023-03-30T06:39:22.902Z,1700
2023-03-30T06:40:39.094Z,1548
2023-03-30T06:41:55.093Z,1420
2023-03-30T06:43:11.462Z,1408
2023-03-30T06:44:27.653Z,1304
2023-03-30T06:45:43.830Z,1324
2023-03-30T06:46:59.847Z,1428
2023-03-30T06:48:16.034Z,1468
2023-03-30T06:49:32.226Z,1512
2023-03-30T06:50:47.599Z,1604
2023-03-30T06:52:03.789Z,1680
2023-03-30T06:53:19.801Z,1640
2023-03-30T06:54:36.170Z,1588
2023-03-30T06:55:52.351Z,1560
2023-03-30T06:57:08.348Z,1456
2023-03-30T06:58:24.541Z,1308
2023-03-30T06:59:40.914Z,1152
2023-03-30T07:00:56.928Z,976
2023-03-30T07:02:13.115Z,864
2023-03-30T07:03:29.284Z,832
2023-03-30T07:04:45.477Z,900
2023-03-30T07:06:01.852Z,984
2023-03-30T07:07:16.872Z,1144
2023-03-30T07:08:33.052Z,1196
2023-03-30T07:09:49.433Z,1216
2023-03-30T07:11:05.609Z,1208
2023-03-30T07:12:21.629Z,1000
2023-03-30T07:13:37.812Z,880
2023-03-30T07:14:54.177Z,824
2023-03-30T07:16:10.372Z,872
2023-03-30T07:17:26.549Z,976
2023-03-30T07:18:42.752Z,1332
2023-03-30T07:19:58.938Z,1356
2023-03-30T07:21:15.139Z,1376
2023-03-30T07:22:31.313Z,1396
2023-03-30T07:23:46.517Z,1476
2023-03-30T07:25:02.513Z,1524
2023-03-30T07:26:18.696Z,1440
2023-03-30T07:27:34.887Z,1428
2023-03-30T07:28:51.248Z,1496
2023-03-30T07:30:07.440Z,1536
2023-03-30T07:31:23.623Z,1532
2023-03-30T07:32:39.630Z,1532
2023-03-30T07:33:56.000Z,1516
2023-03-30T07:35:12.014Z,1508
2023-03-30T07:36:28.374Z,1508
2023-03-30T07:37:44.572Z,1520
2023-03-30T07:39:00.576Z,1548
2023-03-30T07:40:15.952Z,1532
2023-03-30T07:41:32.138Z,1540
2023-03-30T07:42:48.134Z,1532
2023-03-30T07:44:04.532Z,1500
2023-03-30T07:45:20.524Z,1528
2023-03-30T07:46:36.892Z,1528
2023-03-30T07:47:53.089Z,1660
2023-03-30T07:49:09.266Z,1860
2023-03-30T07:50:25.277Z,1524
2023-03-30T07:51:41.460Z,1420
2023-03-30T07:52:57.825Z,1164
2023-03-30T07:54:13.836Z,1184
2023-03-30T07:55:30.020Z,1388
2023-03-30T07:56:45.416Z,1368
2023-03-30T07:58:01.397Z,1328
2023-03-30T07:59:17.789Z,1368
2023-03-30T08:00:33.967Z,1364
2023-03-30T08:01:49.974Z,1304
2023-03-30T08:03:06.357Z,1380
2023-03-30T08:04:22.542Z,1436
2023-03-30T08:05:38.534Z,1444
2023-03-30T08:06:54.905Z,1444
2023-03-30T08:08:11.103Z,1472
2023-03-30T08:09:27.279Z,1496
2023-03-30T08:10:43.270Z,1520
2023-03-30T08:11:59.668Z,1228
2023-03-30T08:13:14.664Z,1500
2023-03-30T08:14:31.051Z,1492
2023-03-30T08:15:47.242Z,1488
2023-03-30T08:17:03.220Z,1492
2023-03-30T08:18:19.618Z,1500
2023-03-30T08:19:35.801Z,1500
2023-03-30T08:20:51.788Z,1524
2023-03-30T08:22:08.175Z,1536
2023-03-30T08:23:24.371Z,1544
2023-03-30T08:24:40.361Z,1564
2023-03-30T08:25:56.743Z,1596
2023-03-30T08:27:12.923Z,1648
2023-03-30T08:28:28.918Z,1652
2023-03-30T08:29:44.119Z,1620
2023-03-30T08:31:00.502Z,1584
2023-03-30T08:32:16.694Z,1576
2023-03-30T08:33:32.870Z,1572
2023-03-30T08:34:49.066Z,1576
2023-03-30T08:36:05.057Z,1588
2023-03-30T08:37:21.433Z,1596
2023-03-30T08:38:37.634Z,1608
2023-03-30T08:39:53.811Z,1648
2023-03-30T08:41:10.001Z,1712
2023-03-30T08:42:25.990Z,1852
2023-03-30T08:43:42.172Z,1916
2023-03-30T08:44:58.554Z,1808
2023-03-30T08:46:13.558Z,1840
2023-03-30T08:47:29.958Z,1996
2023-03-30T08:48:46.141Z,2248
2023-03-30T08:50:02.131Z,2588
2023-03-30T08:51:18.516Z,3028
2023-03-30T08:52:34.502Z,3568
2023-03-30T08:53:50.885Z,4100
2023-03-30T08:55:06.873Z,4200
2023-03-30T08:56:23.057Z,3848
2023-03-30T08:57:39.449Z,4184
2023-03-30T08:58:55.440Z,4396
2023-03-30T09:00:11.826Z,4148
2023-03-30T09:01:28.022Z,3600
2023-03-30T09:02:43.208Z,4156
2023-03-30T09:03:59.201Z,4328
2023-03-30T09:05:15.591Z,4244
2023-03-30T09:06:31.574Z,3952
2023-03-30T09:07:47.768Z,3972
2023-03-30T09:09:04.151Z,3516
2023-03-30T09:10:20.131Z,3396
2023-03-30T09:11:36.527Z,3376
2023-03-30T09:12:52.711Z,3596
2023-03-30T09:14:08.687Z,3636
2023-03-30T09:15:25.081Z,3996
2023-03-30T09:16:41.285Z,4100
2023-03-30T09:17:57.000Z,4228
2023-03-30T09:19:12.678Z,4588
2023-03-30T09:20:28.653Z,4612
2023-03-30T09:21:45.038Z,4444
2023-03-30T09:23:01.235Z,4368
2023-03-30T09:24:17.219Z,4532
2023-03-30T09:25:33.615Z,4420
2023-03-30T09:26:49.802Z,4356
2023-03-30T09:28:05.988Z,4420
2023-03-30T09:29:21.962Z,4732
2023-03-30T09:30:38.346Z,4848
2023-03-30T09:31:54.538Z,4724
2023-03-30T09:33:10.728Z,4628
2023-03-30T09:34:26.918Z,4544
2023-03-30T09:35:41.910Z,4504
2023-03-30T09:36:58.100Z,4676
2023-03-30T09:38:14.500Z,4780
2023-03-30T09:39:30.676Z,4788
2023-03-30T09:40:46.866Z,4400
2023-03-30T09:42:03.059Z,4188
2023-03-30T09:43:19.022Z,3536
2023-03-30T09:44:35.421Z,3156
2023-03-30T09:45:51.412Z,3492
2023-03-30T09:47:07.585Z,3104
2023-03-30T09:48:23.993Z,2772
2023-03-30T09:49:40.182Z,2960
2023-03-30T09:50:56.142Z,3364
2023-03-30T09:52:11.570Z,3544
2023-03-30T09:53:27.762Z,3140
2023-03-30T09:54:43.734Z,3512
2023-03-30T09:56:00.143Z,3668
2023-03-30T09:57:16.328Z,3880
2023-03-30T09:58:32.296Z,3568
2023-03-30T09:59:48.487Z,2680
2023-03-30T10:01:04.876Z,2680
2023-03-30T10:02:21.078Z,2592
2023-03-30T10:03:37.251Z,1584
2023-03-30T10:04:53.437Z,1480
2023-03-30T10:06:09.405Z,1744
2023-03-30T10:07:25.602Z,1792
2023-03-30T10:08:41.033Z,1940
2023-03-30T10:09:57.205Z,2264
2023-03-30T10:11:13.167Z,2892
2023-03-30T10:12:29.590Z,2480
2023-03-30T10:13:45.555Z,1672
2023-03-30T10:15:01.736Z,1452
2023-03-30T10:16:18.145Z,1276
2023-03-30T10:17:34.327Z,1440
2023-03-30T10:18:50.291Z,1564
2023-03-30T10:20:06.717Z,1416
2023-03-30T10:21:22.887Z,1192
2023-03-30T10:22:38.854Z,1084
2023-03-30T10:23:55.050Z,1056
2023-03-30T10:25:10.000Z,1060
2023-03-30T10:26:26.444Z,1024
2023-03-30T10:27:42.851Z,952
2023-03-30T10:28:58.820Z,1104
2023-03-30T10:30:14.995Z,1176
2023-03-30T10:31:31.188Z,1008
2023-03-30T10:32:47.372Z,1024
2023-03-30T10:34:03.796Z,1132
2023-03-30T10:35:19.982Z,1236
2023-03-30T10:36:35.935Z,1264
2023-03-30T10:37:52.118Z,1296
2023-03-30T10:39:08.527Z,1280
2023-03-30T10:40:24.499Z,1400
2023-03-30T10:41:39.929Z,1664
2023-03-30T10:42:56.108Z,1972
2023-03-30T10:44:12.300Z,2376
2023-03-30T10:45:28.263Z,2576
2023-03-30T10:46:44.680Z,2492
2023-03-30T10:48:00.636Z,3384
2023-03-30T10:49:15.841Z,3920
2023-03-30T10:50:32.253Z,3500
2023-03-30T10:51:48.440Z,4156
2023-03-30T10:53:04.634Z,4792
2023-03-30T10:54:20.830Z,3204
2023-03-30T10:55:37.012Z,2732
2023-03-30T10:56:52.971Z,3092
2023-03-30T10:58:09.382Z,2772
2023-03-30T10:59:25.576Z,2992
2023-03-30T11:00:41.517Z,4648
2023-03-30T11:01:57.711Z,6808
2023-03-30T11:03:14.129Z,6956
2023-03-30T11:04:30.329Z,6996
2023-03-30T11:05:45.292Z,7412
2023-03-30T11:07:01.708Z,5064
2023-03-30T11:08:17.898Z,4232
2023-03-30T11:09:34.094Z,5900
2023-03-30T11:10:50.269Z,4288
2023-03-30T11:12:06.455Z,2252
2023-03-30T11:13:22.423Z,1688
2023-03-30T11:14:38.605Z,1636
2023-03-30T11:15:54.785Z,1624
2023-03-30T11:17:11.200Z,1736
2023-03-30T11:18:27.386Z,2116
2023-03-30T11:19:43.344Z,3060
2023-03-30T11:20:59.779Z,3332
2023-03-30T11:22:14.981Z,3004
2023-03-30T11:23:30.932Z,3636
2023-03-30T11:24:47.339Z,3624
2023-03-30T11:26:03.536Z,3360
2023-03-30T11:27:19.492Z,3816
2023-03-30T11:28:35.908Z,3568
2023-03-30T11:29:52.099Z,2656
2023-03-30T11:31:08.055Z,2284
2023-03-30T11:32:24.232Z,2548
2023-03-30T11:33:40.660Z,4352
2023-03-30T11:34:56.605Z,4724
2023-03-30T11:36:13.039Z,3956
2023-03-30T11:37:29.210Z,3584
2023-03-30T11:38:44.186Z,3200
2023-03-30T11:40:00.379Z,2636
2023-03-30T11:41:16.567Z,2340
2023-03-30T11:42:32.993Z,2484
2023-03-30T11:43:48.926Z,3124
2023-03-30T11:45:05.127Z,5616
2023-03-30T11:46:21.304Z,9104
2023-03-30T11:47:37.738Z,11568
2023-03-30T11:48:53.932Z,8000
2023-03-30T11:50:10.114Z,6168
2023-03-30T11:51:26.290Z,8000
2023-03-30T11:52:42.250Z,17188
2023-03-30T11:53:58.436Z,9076
2023-03-30T11:55:13.875Z,9096
2023-03-30T11:56:30.058Z,55808
2023-03-30T11:57:46.240Z,52448
2023-03-30T11:59:02.183Z,47360
2023-03-30T12:00:18.629Z,55168
2023-03-30T12:01:34.817Z,47648
2023-03-30T12:02:50.991Z,53536
2023-03-30T12:04:06.940Z,27712
2023-03-30T12:05:23.123Z,61344
2023-03-30T12:06:39.316Z,44864
2023-03-30T12:07:55.748Z,25728
2023-03-30T12:09:11.686Z,43136
2023-03-30T12:10:28.129Z,45056
2023-03-30T12:11:43.318Z,40896
2023-03-30T12:12:59.517Z,59648
2023-03-30T12:14:15.706Z,61632
2023-03-30T12:15:31.885Z,65216
2023-03-30T12:16:47.831Z,66464
2023-03-30T12:18:04.007Z,65216
2023-03-30T12:19:20.457Z,60704
2023-03-30T12:20:36.640Z,52992
2023-03-30T12:21:52.819Z,62752
2023-03-30T12:23:09.021Z,65632
2023-03-30T12:24:24.951Z,62272
2023-03-30T12:25:41.127Z,56608
2023-03-30T12:26:57.566Z,54912
2023-03-30T12:28:12.769Z,55648
2023-03-30T12:29:28.722Z,59296
2023-03-30T12:30:44.897Z,60192
2023-03-30T12:32:01.094Z,62048
2023-03-30T12:33:17.267Z,62880
2023-03-30T12:34:33.706Z,61632
2023-03-30T12:35:49.893Z,13828
2023-03-30T12:37:06.085Z,27776
2023-03-30T12:38:22.022Z,58624
2023-03-30T12:39:38.454Z,61280
2023-03-30T12:40:54.647Z,53440
2023-03-30T12:42:10.845Z,57536
2023-03-30T12:43:26.778Z,50176
2023-03-30T12:44:41.979Z,44960
2023-03-30T12:45:58.406Z,48960
2023-03-30T12:47:14.345Z,43680
2023-03-30T12:48:30.795Z,20416
2023-03-30T12:49:46.974Z,46656
2023-03-30T12:51:03.169Z,45952
2023-03-30T12:52:19.343Z,16936
2023-03-30T12:53:35.533Z,8940
2023-03-30T12:54:51.465Z,49472
2023-03-30T12:56:07.651Z,54720
2023-03-30T12:57:23.844Z,57792
2023-03-30T12:58:40.032Z,8240
2023-03-30T12:59:56.468Z,14448
2023-03-30T13:01:11.415Z,52992
2023-03-30T13:02:27.616Z,51808
2023-03-30T13:03:43.807Z,19488
2023-03-30T13:05:00.243Z,38784
2023-03-30T13:06:16.172Z,36832
2023-03-30T13:07:32.365Z,45664
2023-03-30T13:08:48.537Z,43008
2023-03-30T13:10:04.738Z,43264
2023-03-30T13:11:21.169Z,48736
2023-03-30T13:12:37.359Z,58880
2023-03-30T13:13:53.552Z,30656
2023-03-30T13:15:09.748Z,7584
2023-03-30T13:16:25.677Z,49760
2023-03-30T13:17:40.881Z,38336
2023-03-30T13:18:57.311Z,47744
2023-03-30T13:20:13.501Z,17596
2023-03-30T13:21:29.437Z,8140
2023-03-30T13:22:45.625Z,9200
2023-03-30T13:24:02.058Z,23328
2023-03-30T13:25:18.253Z,5332
2023-03-30T13:26:34.444Z,31360
2023-03-30T13:27:50.635Z,26656
2023-03-30T13:29:06.566Z,24864
2023-03-30T13:30:22.735Z,10860
2023-03-30T13:31:39.200Z,17520
2023-03-30T13:32:55.389Z,35968
2023-03-30T13:34:10.321Z,34368
2023-03-30T13:35:26.777Z,38816
2023-03-30T13:36:42.686Z,37952
2023-03-30T13:37:58.884Z,16772
2023-03-30T13:39:15.338Z,14912
2023-03-30T13:40:31.247Z,24864
2023-03-30T13:41:47.702Z,33888
2023-03-30T13:43:03.905Z,11112
2023-03-30T13:44:20.082Z,8064
2023-03-30T13:45:35.996Z,7212
2023-03-30T13:46:52.187Z,5500
2023-03-30T13:48:08.388Z,3476
2023-03-30T13:49:24.832Z,1904
2023-03-30T13:50:40.024Z,1460
2023-03-30T13:51:55.962Z,1116
2023-03-30T13:53:12.145Z,948
2023-03-30T13:54:28.589Z,796
2023-03-30T13:55:44.525Z,700
2023-03-30T13:57:00.704Z,772
2023-03-30T13:58:17.156Z,676
2023-03-30T13:59:33.081Z,540
2023-03-30T14:00:49.261Z,444
2023-03-30T14:02:05.728Z,408
2023-03-30T14:03:21.631Z,292
2023-03-30T14:04:38.093Z,152
2023-03-30T14:05:54.279Z,80
2023-03-30T14:07:09.478Z,56
2023-03-30T14:08:25.412Z,52
2023-03-30T14:09:41.870Z,80
2023-03-30T14:10:57.774Z,100
2023-03-30T14:12:13.963Z,96
2023-03-30T14:13:30.423Z,96
2023-03-30T14:14:46.604Z,136
2023-03-30T14:16:02.529Z,152
2023-03-30T14:17:18.976Z,168
2023-03-30T14:18:35.164Z,180
2023-03-30T14:19:51.082Z,184
2023-03-30T14:21:07.278Z,168
2023-03-30T14:22:23.742Z,152
2023-03-30T14:23:38.937Z,148
2023-03-30T14:24:54.846Z,156
2023-03-30T14:26:11.036Z,156
2023-03-30T14:27:27.494Z,148
2023-03-30T14:28:43.695Z,148
2023-03-30T14:29:59.863Z,132
2023-03-30T14:31:16.058Z,116
2023-03-30T14:32:32.249Z,96
2023-03-30T14:33:48.169Z,88
2023-03-30T14:35:04.349Z,92
2023-03-30T14:36:20.810Z,92
2023-03-30T14:37:36.718Z,104
2023-03-30T14:38:53.186Z,96
2023-03-30T14:40:08.382Z,92
2023-03-30T14:41:24.303Z,96
2023-03-30T14:42:40.493Z,96
2023-03-30T14:43:56.687Z,100
2023-03-30T14:45:12.869Z,108
2023-03-30T14:46:29.057Z,116
2023-03-30T14:47:45.235Z,128
2023-03-30T14:49:01.440Z,152
2023-03-30T14:50:17.886Z,156
2023-03-30T14:51:34.083Z,152
2023-03-30T14:52:50.260Z,144
2023-03-30T14:54:06.454Z,136
2023-03-30T14:55:22.646Z,140
2023-03-30T14:56:37.852Z,164
2023-03-30T14:57:54.045Z,176
2023-03-30T14:59:10.234Z,188
2023-03-30T15:00:26.423Z,192
2023-03-30T15:01:42.599Z,188
2023-03-30T15:02:58.794Z,188
2023-03-30T15:04:13.993Z,196
2023-03-30T15:05:30.192Z,208
2023-03-30T15:06:46.387Z,228
2023-03-30T15:08:02.568Z,232
2023-03-30T15:09:18.754Z,232
2023-03-30T15:10:34.948Z,232
2023-03-30T15:11:51.142Z,220
2023-03-30T15:13:07.321Z,200
2023-03-30T15:14:23.507Z,200
2023-03-30T15:15:39.704Z,248
2023-03-30T15:16:55.900Z,312
2023-03-30T15:18:12.086Z,360
2023-03-30T15:19:28.265Z,460
2023-03-30T15:20:43.464Z,588
2023-03-30T15:21:59.668Z,604
2023-03-30T15:23:15.849Z,656
2023-03-30T15:24:32.053Z,636
2023-03-30T15:25:48.221Z,620
2023-03-30T15:27:04.402Z,600
2023-03-30T15:28:20.590Z,560
2023-03-30T15:29:36.810Z,468
2023-03-30T15:30:53.002Z,304
2023-03-30T15:32:09.156Z,264
2023-03-30T15:33:25.363Z,280
2023-03-30T15:34:41.533Z,328
2023-03-30T15:35:57.733Z,356
2023-03-30T15:37:12.945Z,328
2023-03-30T15:38:29.121Z,356
2023-03-30T15:39:45.335Z,380
2023-03-30T15:41:01.511Z,372
2023-03-30T15:42:17.691Z,436
2023-03-30T15:43:33.882Z,460
2023-03-30T15:44:50.065Z,432
2023-03-30T15:46:06.250Z,460
2023-03-30T15:47:22.459Z,452
2023-03-30T15:48:38.659Z,512
2023-03-30T15:49:54.814Z,564
2023-03-30T15:51:11.007Z,636
2023-03-30T15:52:27.190Z,780
2023-03-30T15:53:42.401Z,852
2023-03-30T15:54:58.585Z,864
2023-03-30T15:56:14.776Z,904
2023-03-30T15:57:30.977Z,932
2023-03-30T15:58:47.154Z,916
2023-03-30T16:00:03.376Z,856
2023-03-30T16:01:19.543Z,780
2023-03-30T16:02:35.730Z,744
2023-03-30T16:03:51.917Z,768
2023-03-30T16:05:08.111Z,804
2023-03-30T16:06:24.290Z,824
2023-03-30T16:07:40.485Z,820
2023-03-30T16:08:56.659Z,828
2023-03-30T16:10:11.892Z,812
2023-03-30T16:11:28.073Z,784
2023-03-30T16:12:44.252Z,744
2023-03-30T16:14:00.427Z,724
2023-03-30T16:15:16.641Z,740
2023-03-30T16:16:32.823Z,756
2023-03-30T16:17:49.013Z,764
2023-03-30T16:19:05.181Z,788
2023-03-30T16:20:21.386Z,816
2023-03-30T16:21:37.565Z,852
2023-03-30T16:22:53.767Z,884
2023-03-30T16:24:09.951Z,860
2023-03-30T16:25:26.159Z,844
2023-03-30T16:26:41.347Z,876
2023-03-30T16:27:57.527Z,944
2023-03-30T16:29:13.723Z,1008
2023-03-30T16:30:29.900Z,1236
2023-03-30T16:31:46.101Z,1468
2023-03-30T16:33:02.321Z,1684
2023-03-30T16:34:18.494Z,1772
2023-03-30T16:35:34.652Z,1784
2023-03-30T16:36:50.854Z,1716
2023-03-30T16:38:07.031Z,1556
2023-03-30T16:39:23.223Z,1336
2023-03-30T16:40:39.424Z,1252
2023-03-30T16:41:55.627Z,1168
2023-03-30T16:43:11.907Z,1024
2023-03-30T16:44:28.108Z,892
2023-03-30T16:45:44.329Z,728
2023-03-30T16:47:00.471Z,592
2023-03-30T16:48:16.692Z,488
2023-03-30T16:49:32.000Z,424
2023-03-30T16:50:49.044Z,388
2023-03-30T16:52:05.227Z,324
2023-03-30T16:53:21.418Z,312
2023-03-30T16:54:37.652Z,360
2023-03-30T16:55:53.811Z,408
2023-03-30T16:57:10.001Z,396
2023-03-30T16:58:26.177Z,400
2023-03-30T16:59:41.415Z,396
2023-03-30T17:00:57.599Z,388
2023-03-30T17:02:13.810Z,384
2023-03-30T17:03:29.985Z,404
2023-03-30T17:04:46.135Z,468
2023-03-30T17:06:02.328Z,520
2023-03-30T17:07:18.509Z,504
2023-03-30T17:08:34.754Z,464
2023-03-30T17:09:50.899Z,428
2023-03-30T17:11:07.124Z,392
2023-03-30T17:12:23.302Z,352
2023-03-30T17:13:39.492Z,400
2023-03-30T17:14:55.660Z,416
2023-03-30T17:16:10.860Z,328
2023-03-30T17:17:27.036Z,300
2023-03-30T17:18:43.230Z,352
2023-03-30T17:19:59.421Z,356
2023-03-30T17:21:15.606Z,372
2023-03-30T17:22:31.793Z,312
2023-03-30T17:23:47.998Z,236
2023-03-30T17:25:04.187Z,204
2023-03-30T17:26:20.413Z,184
2023-03-30T17:27:36.603Z,168
2023-03-30T17:28:52.791Z,148
2023-03-30T17:30:08.933Z,132